createdAt,value
2023-01-17T00:01:15.423Z,74.37
2023-01-17T00:04:00.569Z,74.31
2023-01-17T00:06:45.678Z,73.88
2023-01-17T00:09:32.904Z,74.16
2023-01-17T00:12:02.291Z,74.19
2023-01-17T00:14:29.126Z,74.08
2023-01-17T00:16:55.645Z,73.96
2023-01-17T00:19:40.844Z,75.10
2023-01-17T00:22:30.218Z,74.22
2023-01-17T00:25:15.011Z,74.77
2023-01-17T00:27:41.510Z,75.00
2023-01-17T00:30:08.749Z,74.50
2023-01-17T00:32:35.195Z,74.27
2023-01-17T00:35:01.719Z,74.70
2023-01-17T00:37:28.187Z,73.99
2023-01-17T00:39:54.639Z,73.47
2023-01-17T00:42:21.100Z,73.09
2023-01-17T00:45:05.973Z,73.57
2023-01-17T00:47:53.086Z,73.87
2023-01-17T00:50:38.122Z,72.95
2023-01-17T00:53:23.901Z,73.80
2023-01-17T00:56:09.116Z,72.91
2023-01-17T00:58:53.999Z,71.87
2023-01-17T01:01:39.509Z,68.95
2023-01-17T01:04:24.732Z,69.10
2023-01-17T01:07:09.558Z,67.50
2023-01-17T01:09:54.326Z,67.00
2023-01-17T01:12:39.739Z,66.51
2023-01-17T01:15:25.497Z,65.58
2023-01-17T01:18:10.407Z,66.16
2023-01-17T01:20:55.191Z,65.30
2023-01-17T01:23:40.226Z,64.98
2023-01-17T01:26:25.075Z,66.12
2023-01-17T01:29:10.012Z,65.61
2023-01-17T01:31:54.707Z,65.55
2023-01-17T01:34:21.294Z,65.38
2023-01-17T01:36:48.007Z,65.25
2023-01-17T01:39:14.567Z,65.73
2023-01-17T01:41:41.335Z,64.56
2023-01-17T01:44:49.273Z,64.26
2023-01-17T01:47:38.546Z,64.45
2023-01-17T01:50:08.326Z,64.38
2023-01-17T01:52:37.089Z,65.14
2023-01-17T01:55:15.689Z,64.71
2023-01-17T01:57:46.254Z,65.30
2023-01-17T02:00:19.232Z,64.99
2023-01-17T02:02:49.716Z,65.16
2023-01-17T02:05:20.542Z,65.06
2023-01-17T02:08:33.272Z,64.60
2023-01-17T02:11:00.449Z,64.89
2023-01-17T02:13:28.390Z,63.91
2023-01-17T02:16:04.286Z,64.42
2023-01-17T02:18:43.775Z,64.40
2023-01-17T02:21:35.092Z,65.03
2023-01-17T02:24:32.417Z,64.86
2023-01-17T02:27:23.888Z,65.11
2023-01-17T02:30:30.554Z,64.96
2023-01-17T02:33:06.454Z,64.87
2023-01-17T02:35:42.053Z,64.06
2023-01-17T02:38:16.806Z,64.87
2023-01-17T02:40:49.451Z,64.25
2023-01-17T02:43:19.420Z,63.96
2023-01-17T02:45:46.018Z,63.74
2023-01-17T02:48:16.873Z,63.68
2023-01-17T02:51:09.140Z,63.79
2023-01-17T02:54:18.014Z,63.63
2023-01-17T02:57:12.718Z,63.01
2023-01-17T03:00:15.488Z,62.77
2023-01-17T03:03:20.553Z,62.76
2023-01-17T03:05:58.174Z,61.95
2023-01-17T03:08:26.715Z,62.82
2023-01-17T03:10:53.797Z,62.89
2023-01-17T03:13:20.375Z,62.27
2023-01-17T03:15:47.348Z,61.21
2023-01-17T03:18:15.999Z,60.95
2023-01-17T03:20:42.880Z,60.91
2023-01-17T03:23:09.400Z,60.75
2023-01-17T03:25:35.938Z,60.72
2023-01-17T03:28:02.474Z,59.34
2023-01-17T03:30:29.068Z,59.63
2023-01-17T03:32:55.724Z,59.61
2023-01-17T03:35:22.331Z,59.94
2023-01-17T03:37:48.897Z,59.09
2023-01-17T03:40:15.406Z,58.91
2023-01-17T03:42:42.739Z,58.61
2023-01-17T03:45:09.723Z,59.04
2023-01-17T03:47:36.444Z,58.79
2023-01-17T03:50:03.768Z,58.95
2023-01-17T03:52:30.460Z,59.18
2023-01-17T03:54:57.116Z,59.33
2023-01-17T03:57:23.707Z,58.90
2023-01-17T03:59:50.292Z,58.98
2023-01-17T04:02:17.487Z,58.70
2023-01-17T04:04:44.113Z,58.55
2023-01-17T04:07:10.623Z,59.16
2023-01-17T04:09:37.216Z,58.86
2023-01-17T04:12:03.951Z,59.86
2023-01-17T04:14:30.577Z,59.80
2023-01-17T04:16:57.452Z,59.08
2023-01-17T04:19:24.120Z,59.81
2023-01-17T04:21:50.825Z,59.41
2023-01-17T04:24:18.115Z,59.52
2023-01-17T04:26:44.785Z,59.38
2023-01-17T04:29:11.388Z,59.59
2023-01-17T04:31:37.925Z,59.21
2023-01-17T04:34:04.472Z,59.50
2023-01-17T04:36:30.998Z,59.65
2023-01-17T04:38:57.537Z,59.52
2023-01-17T04:41:24.154Z,59.84
2023-01-17T04:43:50.681Z,59.35
2023-01-17T04:46:17.251Z,60.01
2023-01-17T04:48:43.820Z,59.07
2023-01-17T04:51:10.368Z,59.48
2023-01-17T04:53:36.988Z,59.15
2023-01-17T04:56:03.714Z,59.67
2023-01-17T04:58:30.943Z,59.56
2023-01-17T05:01:05.429Z,59.79
2023-01-17T05:03:32.572Z,59.94
2023-01-17T05:05:59.880Z,59.47
2023-01-17T05:08:26.609Z,59.38
2023-01-17T05:10:53.156Z,59.02
2023-01-17T05:13:20.095Z,59.97
2023-01-17T05:15:47.044Z,59.47
2023-01-17T05:18:16.013Z,58.80
2023-01-17T05:20:43.017Z,59.15
2023-01-17T05:23:10.544Z,59.06
2023-01-17T05:25:37.124Z,59.62
2023-01-17T05:28:04.187Z,58.66
2023-01-17T05:30:32.199Z,58.92
2023-01-17T05:32:59.300Z,58.74
2023-01-17T05:35:32.744Z,58.57
2023-01-17T05:37:59.392Z,59.49
2023-01-17T05:40:28.616Z,58.91
2023-01-17T05:42:57.595Z,58.89
2023-01-17T05:45:26.503Z,59.02
2023-01-17T05:47:54.436Z,58.47
2023-01-17T05:50:30.342Z,58.60
2023-01-17T05:52:58.660Z,58.57
2023-01-17T05:55:27.089Z,59.46
2023-01-17T05:57:54.907Z,59.18
2023-01-17T06:00:22.152Z,58.68
2023-01-17T06:02:49.679Z,59.04
2023-01-17T06:05:16.946Z,59.27
2023-01-17T06:07:45.251Z,59.57
2023-01-17T06:10:14.398Z,59.37
2023-01-17T06:12:42.264Z,59.64
2023-01-17T06:15:09.939Z,59.47
2023-01-17T06:17:36.924Z,59.51
2023-01-17T06:20:05.273Z,60.12
2023-01-17T06:22:32.321Z,60.30
2023-01-17T06:24:58.892Z,60.34
2023-01-17T06:27:25.957Z,60.99
2023-01-17T06:29:52.488Z,60.17
2023-01-17T06:32:19.058Z,60.56
2023-01-17T06:34:45.634Z,61.26
2023-01-17T06:37:12.146Z,61.32
2023-01-17T06:39:38.659Z,61.08
2023-01-17T06:42:05.234Z,61.54
2023-01-17T06:44:31.757Z,61.31
2023-01-17T06:46:58.523Z,61.08
2023-01-17T06:49:25.343Z,61.31
2023-01-17T06:51:51.986Z,60.88
2023-01-17T06:54:19.358Z,61.33
2023-01-17T06:56:45.869Z,61.37
2023-01-17T06:59:12.461Z,62.25
2023-01-17T07:01:39.098Z,61.67
2023-01-17T07:04:05.747Z,61.30
2023-01-17T07:06:32.320Z,60.66
2023-01-17T07:08:59.162Z,60.56
2023-01-17T07:11:27.368Z,61.12
2023-01-17T07:13:54.211Z,61.44
2023-01-17T07:16:21.055Z,60.93
2023-01-17T07:18:47.607Z,60.08
2023-01-17T07:21:15.237Z,59.92
2023-01-17T07:23:42.129Z,60.87
2023-01-17T07:26:09.034Z,60.37
2023-01-17T07:28:35.670Z,60.18
2023-01-17T07:31:08.012Z,60.82
2023-01-17T07:33:34.833Z,60.87
2023-01-17T07:36:09.378Z,60.55
2023-01-17T07:38:36.343Z,61.17
2023-01-17T07:41:02.963Z,60.57
2023-01-17T07:43:29.486Z,60.37
2023-01-17T07:45:56.468Z,60.44
2023-01-17T07:48:24.882Z,60.80
2023-01-17T07:50:56.365Z,61.07
2023-01-17T07:53:27.949Z,61.22
2023-01-17T07:55:54.940Z,61.18
2023-01-17T07:58:22.159Z,60.90
2023-01-17T08:00:48.875Z,60.80
2023-01-17T08:03:17.711Z,60.90
2023-01-17T08:05:53.533Z,60.92
2023-01-17T08:08:19.990Z,60.90
2023-01-17T08:10:46.492Z,60.69
2023-01-17T08:13:13.038Z,60.66
2023-01-17T08:15:39.595Z,60.54
2023-01-17T08:18:06.567Z,60.17
2023-01-17T08:20:33.154Z,60.74
2023-01-17T08:22:59.813Z,61.11
2023-01-17T08:25:27.016Z,60.59
2023-01-17T08:27:57.965Z,60.71
2023-01-17T08:30:25.627Z,61.01
2023-01-17T08:32:52.279Z,60.43
2023-01-17T08:35:20.184Z,60.84
2023-01-17T08:37:54.916Z,60.78
2023-01-17T08:40:22.615Z,60.92
2023-01-17T08:42:57.485Z,60.93
2023-01-17T08:45:24.795Z,61.37
2023-01-17T08:47:51.479Z,61.00
2023-01-17T08:50:20.817Z,60.48
2023-01-17T08:52:48.825Z,60.24
2023-01-17T08:55:18.416Z,60.25
2023-01-17T08:57:44.951Z,60.99
2023-01-17T09:00:11.961Z,60.37
2023-01-17T09:02:38.617Z,60.14
2023-01-17T09:05:05.688Z,60.20
2023-01-17T09:07:32.493Z,60.46
2023-01-17T09:09:59.175Z,59.37
2023-01-17T09:12:26.243Z,58.90
2023-01-17T09:14:52.847Z,59.29
2023-01-17T09:17:19.504Z,59.39
2023-01-17T09:19:48.975Z,58.68
2023-01-17T09:22:15.776Z,58.83
2023-01-17T09:24:42.440Z,58.14
2023-01-17T09:27:09.033Z,58.22
2023-01-17T09:29:35.710Z,58.25
2023-01-17T09:32:02.311Z,57.81
2023-01-17T09:34:30.469Z,58.31
2023-01-17T09:36:57.359Z,57.54
2023-01-17T09:39:24.074Z,57.96
2023-01-17T09:42:09.057Z,57.74
2023-01-17T09:44:46.373Z,57.48
2023-01-17T09:47:18.527Z,56.93
2023-01-17T09:49:46.992Z,57.17
2023-01-17T09:52:21.055Z,57.19
2023-01-17T09:54:49.539Z,57.13
2023-01-17T09:57:28.222Z,56.65
2023-01-17T10:00:03.483Z,56.50
2023-01-17T10:02:50.557Z,55.82
2023-01-17T10:05:26.606Z,55.83
2023-01-17T10:07:56.057Z,55.42
2023-01-17T10:10:52.149Z,55.66
2023-01-17T10:13:34.765Z,54.80
2023-01-17T10:16:19.993Z,54.55
2023-01-17T10:19:03.817Z,54.26
2023-01-17T10:21:59.181Z,54.20
2023-01-17T10:24:44.631Z,53.56
2023-01-17T10:27:21.272Z,54.13
2023-01-17T10:29:50.916Z,54.88
2023-01-17T10:32:19.513Z,54.11
2023-01-17T10:34:52.229Z,54.05
2023-01-17T10:37:40.949Z,54.30
2023-01-17T10:40:16.737Z,53.30
2023-01-17T10:42:57.783Z,53.49
2023-01-17T10:45:29.068Z,54.26
2023-01-17T10:48:15.647Z,53.62
2023-01-17T10:50:59.532Z,53.83
2023-01-17T10:54:02.026Z,53.86
2023-01-17T10:56:30.643Z,52.90
2023-01-17T10:59:18.040Z,53.19
2023-01-17T11:01:44.840Z,52.73
2023-01-17T11:04:19.721Z,52.52
2023-01-17T11:06:57.751Z,52.55
2023-01-17T11:09:38.606Z,52.91
2023-01-17T11:12:05.516Z,52.91
2023-01-17T11:14:38.418Z,52.71
2023-01-17T11:17:07.037Z,53.38
2023-01-17T11:19:36.388Z,52.95
2023-01-17T11:22:06.276Z,52.70
2023-01-17T11:24:40.740Z,53.24
2023-01-17T11:27:22.492Z,52.60
2023-01-17T11:30:01.690Z,53.14
2023-01-17T11:32:31.978Z,52.87
2023-01-17T11:35:15.329Z,52.93
2023-01-17T11:38:03.363Z,53.52
2023-01-17T11:40:43.478Z,53.65
2023-01-17T11:43:14.296Z,53.63
2023-01-17T11:45:41.513Z,53.09
2023-01-17T11:48:08.108Z,52.86
2023-01-17T11:50:38.896Z,52.24
2023-01-17T11:53:28.029Z,51.97
2023-01-17T11:56:04.062Z,51.21
2023-01-17T11:58:33.776Z,51.07
2023-01-17T12:01:00.216Z,51.16
2023-01-17T12:04:00.835Z,51.70
2023-01-17T12:06:56.914Z,51.35
2023-01-17T12:09:38.133Z,51.04
2023-01-17T12:12:29.285Z,50.88
2023-01-17T12:15:16.728Z,51.28
2023-01-17T12:18:20.931Z,50.43
2023-01-17T12:21:08.205Z,50.75
2023-01-17T12:23:55.916Z,51.01
2023-01-17T12:26:36.235Z,50.89
2023-01-17T12:29:20.615Z,50.91
2023-01-17T12:32:16.443Z,50.43
2023-01-17T12:34:47.122Z,50.06
2023-01-17T12:37:26.595Z,50.74
2023-01-17T12:40:32.792Z,51.39
2023-01-17T12:43:12.466Z,50.94
2023-01-17T12:45:43.378Z,51.66
2023-01-17T12:48:17.340Z,51.70
2023-01-17T12:50:49.088Z,51.42
2023-01-17T12:53:24.166Z,51.16
2023-01-17T12:56:22.624Z,51.51
2023-01-17T12:58:54.714Z,51.67
2023-01-17T13:01:30.748Z,51.92
2023-01-17T13:04:06.532Z,51.98
2023-01-17T13:07:10.441Z,52.40
2023-01-17T13:09:48.304Z,52.38
2023-01-17T13:12:18.134Z,52.54
2023-01-17T13:14:47.730Z,51.67
2023-01-17T13:17:29.597Z,51.33
2023-01-17T13:20:01.821Z,51.20
2023-01-17T13:22:29.879Z,50.92
2023-01-17T13:25:08.128Z,49.72
2023-01-17T13:27:44.027Z,50.21
2023-01-17T13:30:29.455Z,50.67
2023-01-17T13:33:15.355Z,50.84
2023-01-17T13:35:44.545Z,51.06
2023-01-17T13:38:29.351Z,51.11
2023-01-17T13:41:38.060Z,51.45
2023-01-17T13:44:24.583Z,50.76
2023-01-17T13:47:04.206Z,49.96
2023-01-17T13:49:34.240Z,50.49
2023-01-17T13:52:12.157Z,49.97
2023-01-17T13:55:00.686Z,50.56
2023-01-17T13:57:29.929Z,51.84
2023-01-17T13:59:58.699Z,52.41
2023-01-17T14:02:38.954Z,51.24
2023-01-17T14:05:32.144Z,50.68
2023-01-17T14:08:02.314Z,50.50
2023-01-17T14:10:48.629Z,51.41
2023-01-17T14:13:38.447Z,52.45
2023-01-17T14:16:29.830Z,52.93
2023-01-17T14:18:56.862Z,54.52
2023-01-17T14:21:32.149Z,54.29
2023-01-17T14:24:11.049Z,54.54
2023-01-17T14:26:42.527Z,53.25
2023-01-17T14:29:43.882Z,51.84
2023-01-17T14:32:21.797Z,51.52
2023-01-17T14:34:51.567Z,53.01
2023-01-17T14:37:33.120Z,52.45
2023-01-17T14:40:01.125Z,52.76
2023-01-17T14:42:30.644Z,52.81
2023-01-17T14:45:05.656Z,53.36
2023-01-17T14:47:35.858Z,53.41
2023-01-17T14:50:17.712Z,54.49
2023-01-17T14:52:45.068Z,54.32
2023-01-17T14:55:20.654Z,54.82
2023-01-17T14:57:54.859Z,54.71
2023-01-17T15:00:23.489Z,54.98
2023-01-17T15:02:50.808Z,55.42
2023-01-17T15:05:20.374Z,55.71
2023-01-17T15:07:52.984Z,56.24
2023-01-17T15:10:26.264Z,56.14
2023-01-17T15:12:53.161Z,57.10
2023-01-17T15:15:32.200Z,56.30
2023-01-17T15:18:13.811Z,56.93
2023-01-17T15:20:50.258Z,57.77
2023-01-17T15:23:22.113Z,57.62
2023-01-17T15:25:50.557Z,58.58
2023-01-17T15:28:18.257Z,59.56
2023-01-17T15:31:11.021Z,59.31
2023-01-17T15:33:40.908Z,59.79
2023-01-17T15:36:32.527Z,59.19
2023-01-17T15:39:06.323Z,61.23
2023-01-17T15:41:39.602Z,61.58
2023-01-17T15:44:08.170Z,61.25
2023-01-17T15:46:43.072Z,61.57
2023-01-17T15:49:33.626Z,62.08
2023-01-17T15:52:04.910Z,62.47
2023-01-17T15:54:50.662Z,62.21
2023-01-17T15:57:23.647Z,62.04
2023-01-17T16:00:15.811Z,59.96
2023-01-17T16:02:49.241Z,60.25
2023-01-17T16:05:22.598Z,60.77
2023-01-17T16:08:09.425Z,61.14
2023-01-17T16:10:37.811Z,61.52
2023-01-17T16:13:06.277Z,62.88
2023-01-17T16:15:35.559Z,61.69
2023-01-17T16:18:06.854Z,60.75
2023-01-17T16:20:41.752Z,61.36
2023-01-17T16:23:10.443Z,61.71
2023-01-17T16:25:37.298Z,61.00
2023-01-17T16:28:04.801Z,61.26
2023-01-17T16:30:32.349Z,61.39
2023-01-17T16:32:59.329Z,63.28
2023-01-17T16:35:31.812Z,64.56
2023-01-17T16:38:04.328Z,65.36
2023-01-17T16:40:33.628Z,64.83
2023-01-17T16:43:00.873Z,65.08
2023-01-17T16:45:27.938Z,66.12
2023-01-17T16:47:54.829Z,66.56
2023-01-17T16:50:25.387Z,65.23
2023-01-17T16:52:53.547Z,65.68
2023-01-17T16:55:22.651Z,65.68
2023-01-17T16:57:51.243Z,65.45
2023-01-17T17:00:18.519Z,66.72
2023-01-17T17:02:45.163Z,65.77
2023-01-17T17:05:11.828Z,66.36
2023-01-17T17:07:46.418Z,67.69
2023-01-17T17:10:15.413Z,67.68
2023-01-17T17:12:42.736Z,69.25
2023-01-17T17:15:10.650Z,70.39
2023-01-17T17:17:38.643Z,71.62
2023-01-17T17:20:06.629Z,72.21
2023-01-17T17:22:33.323Z,72.37
2023-01-17T17:25:00.066Z,72.37
2023-01-17T17:27:27.873Z,73.25
2023-01-17T17:29:54.700Z,74.06
2023-01-17T17:32:21.448Z,72.69
2023-01-17T17:34:48.161Z,71.59
2023-01-17T17:37:16.090Z,72.06
2023-01-17T17:39:43.012Z,72.86
2023-01-17T17:42:09.622Z,73.05
2023-01-17T17:44:36.288Z,72.99
2023-01-17T17:47:03.985Z,70.13
2023-01-17T17:49:30.921Z,69.84
2023-01-17T17:52:07.250Z,69.67
2023-01-17T17:54:34.403Z,69.42
2023-01-17T17:57:01.108Z,70.78
2023-01-17T17:59:27.662Z,70.15
2023-01-17T18:01:54.323Z,70.31
2023-01-17T18:04:22.148Z,70.95
2023-01-17T18:06:48.714Z,71.17
2023-01-17T18:09:15.371Z,71.38
2023-01-17T18:11:43.539Z,71.67
2023-01-17T18:14:14.413Z,72.81
2023-01-17T18:16:44.817Z,74.03
2023-01-17T18:19:14.471Z,73.38
2023-01-17T18:21:41.211Z,73.04
2023-01-17T18:24:13.555Z,73.83
2023-01-17T18:26:50.880Z,74.45
2023-01-17T18:29:19.569Z,74.33
2023-01-17T18:31:47.433Z,73.76
2023-01-17T18:34:17.074Z,73.84
2023-01-17T18:36:44.210Z,73.75
2023-01-17T18:39:33.405Z,74.37
2023-01-17T18:42:00.380Z,76.50
2023-01-17T18:44:27.548Z,77.41
2023-01-17T18:46:54.826Z,77.31
2023-01-17T18:49:24.052Z,78.21
2023-01-17T18:51:51.496Z,78.07
2023-01-17T18:54:19.949Z,76.07
2023-01-17T18:56:46.916Z,77.08
2023-01-17T18:59:16.114Z,78.40
2023-01-17T19:01:43.732Z,79.36
2023-01-17T19:04:12.158Z,79.05
2023-01-17T19:06:43.902Z,80.26
2023-01-17T19:09:12.390Z,79.78
2023-01-17T19:11:39.546Z,78.92
2023-01-17T19:14:07.262Z,79.59
2023-01-17T19:16:39.005Z,78.84
2023-01-17T19:19:08.543Z,78.96
2023-01-17T19:21:35.449Z,79.74
2023-01-17T19:24:02.261Z,79.85
2023-01-17T19:26:30.100Z,81.72
2023-01-17T19:29:03.711Z,81.17
2023-01-17T19:31:32.429Z,81.07
2023-01-17T19:33:59.896Z,80.45
2023-01-17T19:36:31.030Z,81.42
2023-01-17T19:39:06.288Z,82.01
2023-01-17T19:41:41.008Z,81.54
2023-01-17T19:44:09.860Z,81.88
2023-01-17T19:46:37.051Z,82.58
2023-01-17T19:49:06.335Z,81.79
2023-01-17T19:51:33.053Z,82.22
2023-01-17T19:54:04.109Z,82.17
2023-01-17T19:56:31.018Z,81.39
2023-01-17T19:59:01.144Z,82.14
2023-01-17T20:01:30.618Z,82.19
2023-01-17T20:03:58.449Z,82.15
2023-01-17T20:06:28.875Z,80.82
2023-01-17T20:08:56.286Z,79.39
2023-01-17T20:11:24.862Z,79.36
2023-01-17T20:13:54.125Z,79.26
2023-01-17T20:16:21.519Z,78.01
2023-01-17T20:18:48.306Z,79.34
2023-01-17T20:21:20.802Z,78.67
2023-01-17T20:23:48.765Z,80.22
2023-01-17T20:26:18.548Z,80.55
2023-01-17T20:28:49.664Z,80.40
2023-01-17T20:31:20.015Z,81.04
2023-01-17T20:33:47.715Z,80.64
2023-01-17T20:36:16.639Z,79.92
2023-01-17T20:38:44.056Z,79.73
2023-01-17T20:41:17.539Z,81.46
2023-01-17T20:43:46.757Z,80.82
2023-01-17T20:46:14.084Z,81.59
2023-01-17T20:48:45.545Z,82.03
2023-01-17T20:51:12.863Z,82.29
2023-01-17T20:53:41.610Z,81.98
2023-01-17T20:56:15.035Z,83.17
2023-01-17T20:58:42.576Z,83.39
2023-01-17T21:01:11.002Z,82.83
2023-01-17T21:03:38.830Z,81.95
2023-01-17T21:06:09.248Z,82.43
2023-01-17T21:08:38.469Z,82.16
2023-01-17T21:11:07.415Z,80.83
2023-01-17T21:13:34.084Z,82.03
2023-01-17T21:16:01.551Z,81.86
2023-01-17T21:18:31.841Z,81.18
2023-01-17T21:21:07.971Z,80.94
2023-01-17T21:23:38.636Z,81.45
2023-01-17T21:26:06.464Z,82.60
2023-01-17T21:28:35.645Z,81.96
2023-01-17T21:31:18.106Z,82.17
2023-01-17T21:33:45.078Z,81.46
2023-01-17T21:36:11.924Z,81.31
2023-01-17T21:38:38.991Z,81.20
2023-01-17T21:41:05.733Z,82.44
2023-01-17T21:43:32.261Z,81.89
2023-01-17T21:46:03.302Z,81.66
2023-01-17T21:48:29.992Z,80.75
2023-01-17T21:50:56.583Z,78.02
2023-01-17T21:53:23.142Z,79.30
2023-01-17T21:56:08.559Z,79.60
2023-01-17T21:58:44.229Z,79.89
2023-01-17T22:01:18.193Z,80.23
2023-01-17T22:03:49.050Z,80.54
2023-01-17T22:06:16.144Z,80.04
2023-01-17T22:08:43.121Z,81.47
2023-01-17T22:11:18.307Z,81.38
2023-01-17T22:13:45.580Z,80.92
2023-01-17T22:16:18.025Z,81.42
2023-01-17T22:18:45.502Z,81.22
2023-01-17T22:21:16.963Z,81.67
2023-01-17T22:23:50.609Z,81.41
2023-01-17T22:26:17.794Z,81.10
2023-01-17T22:28:44.706Z,80.56
2023-01-17T22:31:14.038Z,79.85
2023-01-17T22:33:43.272Z,81.11
2023-01-17T22:36:13.665Z,80.64
2023-01-17T22:38:41.801Z,81.34
2023-01-17T22:41:13.135Z,81.38
2023-01-17T22:43:42.497Z,81.42
2023-01-17T22:46:11.455Z,79.17
2023-01-17T22:48:39.248Z,79.44
2023-01-17T22:51:08.916Z,80.82
2023-01-17T22:53:40.435Z,79.91
2023-01-17T22:56:09.429Z,80.33
2023-01-17T22:58:36.112Z,81.38
2023-01-17T23:01:11.519Z,79.59
2023-01-17T23:03:40.771Z,79.90
2023-01-17T23:06:28.840Z,79.67
2023-01-17T23:08:57.564Z,78.96
2023-01-17T23:11:45.047Z,78.99
2023-01-17T23:14:17.650Z,79.64
2023-01-17T23:17:08.686Z,79.73
2023-01-17T23:19:49.491Z,79.82
2023-01-17T23:22:21.827Z,80.32
2023-01-17T23:25:02.799Z,80.31
2023-01-17T23:28:05.789Z,78.23
2023-01-17T23:30:35.735Z,79.28
2023-01-17T23:33:05.084Z,79.38
2023-01-17T23:35:34.108Z,78.57
2023-01-17T23:38:19.306Z,79.21
2023-01-17T23:41:09.249Z,79.26
2023-01-17T23:43:37.182Z,78.00
2023-01-17T23:46:04.865Z,77.92
2023-01-17T23:48:31.573Z,78.09
2023-01-17T23:51:00.725Z,77.79
2023-01-17T23:53:28.130Z,78.04
2023-01-17T23:55:59.665Z,77.65
2023-01-17T23:58:27.945Z,77.18
